createdAt,value
2023-02-07T00:02:51.840Z,26.83
2023-02-07T00:06:44.398Z,25.13
2023-02-07T00:10:37.202Z,29.30
2023-02-07T00:14:30.470Z,23.33
2023-02-07T00:18:23.179Z,25.27
2023-02-07T00:22:15.840Z,30.77
2023-02-07T00:26:10.124Z,30.57
2023-02-07T00:30:03.152Z,26.80
2023-02-07T00:34:00.645Z,31.83
2023-02-07T00:37:53.578Z,36.17
2023-02-07T00:41:46.668Z,37.80
2023-02-07T00:45:39.637Z,48.27
2023-02-07T00:49:32.753Z,43.47
2023-02-07T00:53:26.532Z,48.97
2023-02-07T00:57:19.348Z,44.97
2023-02-07T01:01:12.727Z,54.60
2023-02-07T01:05:07.062Z,41.37
2023-02-07T01:09:01.947Z,48.63
2023-02-07T01:12:54.503Z,43.20
2023-02-07T01:16:47.302Z,42.83
2023-02-07T01:20:40.190Z,47.33
2023-02-07T01:24:32.832Z,52.17
2023-02-07T01:28:25.682Z,38.90
2023-02-07T01:32:18.576Z,41.40
2023-02-07T01:36:14.650Z,42.23
2023-02-07T01:40:08.096Z,39.23
2023-02-07T01:44:08.984Z,35.27
2023-02-07T01:48:13.944Z,38.33
2023-02-07T01:52:20.004Z,36.93
2023-02-07T01:56:29.454Z,48.13
2023-02-07T02:00:24.627Z,47.90
2023-02-07T02:04:17.338Z,40.07
2023-02-07T02:08:10.204Z,39.17
2023-02-07T02:12:45.506Z,39.73
2023-02-07T02:16:45.466Z,42.33
2023-02-07T02:21:25.891Z,38.63
2023-02-07T02:25:47.048Z,35.53
2023-02-07T02:30:14.803Z,33.90
2023-02-07T02:38:05.188Z,33.23
2023-02-07T02:42:17.411Z,31.45
2023-02-07T02:46:21.380Z,29.40
2023-02-07T02:50:18.678Z,28.47
2023-02-07T02:54:31.648Z,23.67
2023-02-07T02:58:24.416Z,26.17
2023-02-07T03:02:50.614Z,27.63
2023-02-07T03:07:01.575Z,26.37
2023-02-07T03:11:07.580Z,27.57
2023-02-07T03:15:29.805Z,25.97
2023-02-07T03:19:32.682Z,32.07
2023-02-07T03:23:26.354Z,36.10
2023-02-07T03:27:21.021Z,36.47
2023-02-07T03:31:17.926Z,32.67
2023-02-07T03:35:25.824Z,43.80
2023-02-07T03:39:18.870Z,32.93
2023-02-07T03:43:17.007Z,31.47
2023-02-07T03:47:09.847Z,28.83
2023-02-07T03:51:02.623Z,29.07
2023-02-07T03:54:55.858Z,28.77
2023-02-07T03:58:48.536Z,29.17
2023-02-07T04:02:41.438Z,30.50
2023-02-07T04:06:34.188Z,30.77
2023-02-07T04:10:27.115Z,30.80
2023-02-07T04:14:22.558Z,28.73
2023-02-07T04:18:15.378Z,33.17
2023-02-07T04:22:11.251Z,34.43
2023-02-07T04:26:04.380Z,30.63
2023-02-07T04:29:57.088Z,34.10
2023-02-07T04:33:49.822Z,32.77
2023-02-07T04:37:42.785Z,33.87
2023-02-07T04:41:36.473Z,37.67
2023-02-07T04:45:29.088Z,36.00
2023-02-07T04:49:21.846Z,34.07
2023-02-07T04:53:15.527Z,30.83
2023-02-07T04:57:08.119Z,28.63
2023-02-07T05:01:01.067Z,30.83
2023-02-07T05:04:53.691Z,27.60
2023-02-07T05:08:46.544Z,24.93
2023-02-07T05:12:39.311Z,24.50
2023-02-07T05:16:31.957Z,28.93
2023-02-07T05:20:26.022Z,29.30
2023-02-07T05:24:18.865Z,30.37
2023-02-07T05:28:11.847Z,28.80
2023-02-07T05:32:23.251Z,29.60
2023-02-07T05:36:15.841Z,31.03
2023-02-07T05:40:09.588Z,34.37
2023-02-07T05:44:02.549Z,37.70
2023-02-07T05:47:55.515Z,35.43
2023-02-07T05:51:48.163Z,33.87
2023-02-07T05:55:41.357Z,36.17
2023-02-07T05:59:34.240Z,35.00
2023-02-07T06:03:26.892Z,36.50
2023-02-07T06:07:19.558Z,34.23
2023-02-07T06:11:12.627Z,37.03
2023-02-07T06:15:05.434Z,43.83
2023-02-07T06:18:58.258Z,44.13
2023-02-07T06:22:52.457Z,39.53
2023-02-07T06:26:47.049Z,39.27
2023-02-07T06:30:39.814Z,43.17
2023-02-07T06:34:32.525Z,47.67
2023-02-07T06:38:25.383Z,45.53
2023-02-07T06:42:18.145Z,48.50
2023-02-07T06:46:10.947Z,44.47
2023-02-07T06:50:04.875Z,47.67
2023-02-07T06:53:57.716Z,49.27
2023-02-07T06:57:51.812Z,48.53
2023-02-07T07:01:44.451Z,43.67
2023-02-07T07:05:37.838Z,45.27
2023-02-07T07:09:30.972Z,46.93
2023-02-07T07:13:23.643Z,58.13
2023-02-07T07:17:16.301Z,49.73
2023-02-07T07:21:11.675Z,52.83
2023-02-07T07:25:05.005Z,51.33
2023-02-07T07:29:00.350Z,48.17
2023-02-07T07:32:53.139Z,48.47
2023-02-07T07:36:46.012Z,48.40
2023-02-07T07:40:39.077Z,51.27
2023-02-07T07:44:32.083Z,50.03
2023-02-07T07:48:25.507Z,53.03
2023-02-07T07:52:18.226Z,46.20
2023-02-07T07:56:11.237Z,54.47
2023-02-07T08:00:06.527Z,56.90
2023-02-07T08:03:59.425Z,53.77
2023-02-07T08:07:52.268Z,56.17
2023-02-07T08:11:46.082Z,50.87
2023-02-07T08:15:39.616Z,50.70
2023-02-07T08:19:33.241Z,48.97
2023-02-07T08:23:26.077Z,53.73
2023-02-07T08:27:18.904Z,44.93
2023-02-07T08:31:12.535Z,45.27
2023-02-07T08:35:06.014Z,43.30
2023-02-07T08:38:59.260Z,47.47
2023-02-07T08:42:52.079Z,48.67
2023-02-07T08:46:44.802Z,45.57
2023-02-07T08:50:38.028Z,43.40
2023-02-07T08:54:31.236Z,46.27
2023-02-07T08:58:23.969Z,47.67
2023-02-07T09:02:16.686Z,45.87
2023-02-07T09:06:10.833Z,46.80
2023-02-07T09:10:06.956Z,45.20
2023-02-07T09:13:59.713Z,42.23
2023-02-07T09:17:52.556Z,41.90
2023-02-07T09:21:45.537Z,39.20
2023-02-07T09:25:40.784Z,40.60
2023-02-07T09:29:34.954Z,40.13
2023-02-07T09:33:30.019Z,39.13
2023-02-07T09:37:22.794Z,40.13
2023-02-07T09:41:41.036Z,36.13
2023-02-07T09:45:39.209Z,41.22
2023-02-07T09:49:53.767Z,37.40
2023-02-07T09:53:49.439Z,37.93
2023-02-07T09:57:49.457Z,36.27
2023-02-07T10:01:47.610Z,36.83
2023-02-07T10:06:18.889Z,39.40
2023-02-07T10:10:25.640Z,36.57
2023-02-07T10:14:56.589Z,32.97
2023-02-07T10:19:01.313Z,35.67
2023-02-07T10:23:32.817Z,34.97
2023-02-07T10:27:38.761Z,32.43
2023-02-07T10:31:33.611Z,32.27
2023-02-07T10:35:36.706Z,35.63
2023-02-07T10:39:36.839Z,34.93
2023-02-07T10:43:33.200Z,34.37
2023-02-07T10:47:26.617Z,36.03
2023-02-07T10:51:27.845Z,35.90
2023-02-07T10:55:36.782Z,32.60
2023-02-07T10:59:51.594Z,33.77
2023-02-07T11:03:44.554Z,38.13
2023-02-07T11:07:47.376Z,34.00
2023-02-07T11:11:41.885Z,32.57
2023-02-07T11:15:49.688Z,39.20
2023-02-07T11:19:45.583Z,34.10
2023-02-07T11:23:44.755Z,35.87
2023-02-07T11:27:40.682Z,31.73
2023-02-07T11:31:37.567Z,37.93
2023-02-07T11:35:30.536Z,35.10
2023-02-07T11:39:23.960Z,33.67
2023-02-07T11:43:19.255Z,35.90
2023-02-07T11:47:28.350Z,36.75
2023-02-07T11:51:23.258Z,31.95
2023-02-07T11:55:22.502Z,30.85
2023-02-07T11:59:18.695Z,31.93
2023-02-07T12:03:26.758Z,34.72
2023-02-07T12:07:25.998Z,34.90
2023-02-07T12:11:24.201Z,36.73
2023-02-07T12:15:22.747Z,28.83
2023-02-07T12:19:24.616Z,36.67
2023-02-07T12:23:40.698Z,29.05
2023-02-07T12:27:40.149Z,28.83
2023-02-07T12:31:59.143Z,29.60
2023-02-07T12:36:04.081Z,31.75
2023-02-07T12:40:27.183Z,28.40
2023-02-07T12:44:35.993Z,24.23
2023-02-07T12:48:47.224Z,32.25
2023-02-07T12:52:45.916Z,27.15
2023-02-07T12:57:23.861Z,24.23
2023-02-07T13:01:38.968Z,84.63
2023-02-07T13:05:31.863Z,41.80
2023-02-07T13:09:37.646Z,29.42
2023-02-07T13:13:40.865Z,31.08
2023-02-07T13:17:42.350Z,25.75
2023-02-07T13:21:48.850Z,25.42
2023-02-07T13:25:44.236Z,21.08
2023-02-07T13:29:39.508Z,27.63
2023-02-07T13:33:40.873Z,27.35
2023-02-07T13:37:49.768Z,27.50
2023-02-07T13:42:07.060Z,22.50
2023-02-07T13:46:02.732Z,23.60
2023-02-07T13:50:14.132Z,21.13
2023-02-07T13:54:37.562Z,22.42
2023-02-07T13:58:52.233Z,21.20
2023-02-07T14:02:52.516Z,23.73
2023-02-07T14:06:57.626Z,22.95
2023-02-07T14:10:56.254Z,30.88
2023-02-07T14:15:01.899Z,32.53
2023-02-07T14:18:55.758Z,158.02
2023-02-07T14:22:51.416Z,46.70
2023-02-07T14:26:59.289Z,193.23
2023-02-07T14:35:19.652Z,29.98
2023-02-07T14:39:18.780Z,62.92
2023-02-07T14:43:15.088Z,42.83
2023-02-07T14:47:15.963Z,43.80
2023-02-07T14:51:16.854Z,32.70
2023-02-07T14:55:24.602Z,42.65
2023-02-07T14:59:27.632Z,26.45
2023-02-07T15:03:22.136Z,35.13
2023-02-07T15:07:19.270Z,40.60
2023-02-07T15:11:13.967Z,38.70
2023-02-07T15:15:08.194Z,27.65
2023-02-07T15:19:19.847Z,38.10
2023-02-07T15:23:15.376Z,72.35
2023-02-07T15:27:20.726Z,50.05
2023-02-07T15:31:19.020Z,59.10
2023-02-07T15:35:27.022Z,93.68
2023-02-07T15:43:23.853Z,64.07
2023-02-07T15:47:36.831Z,88.28
2023-02-07T15:51:33.908Z,62.33
2023-02-07T15:55:45.686Z,52.85
2023-02-07T15:59:41.519Z,53.87
2023-02-07T16:03:42.168Z,42.33
2023-02-07T16:07:36.904Z,51.37
2023-02-07T16:11:32.882Z,43.75
2023-02-07T16:15:32.410Z,47.50
2023-02-07T16:19:33.399Z,174.80
2023-02-07T16:23:27.529Z,257.17
2023-02-07T16:27:24.719Z,146.17
2023-02-07T16:31:19.853Z,73.70
2023-02-07T16:35:27.161Z,54.17
2023-02-07T16:39:20.332Z,42.73
2023-02-07T16:43:34.138Z,42.87
2023-02-07T16:47:27.530Z,48.63
2023-02-07T16:51:21.277Z,43.80
2023-02-07T16:55:13.975Z,48.13
2023-02-07T16:59:09.782Z,48.08
2023-02-07T17:03:02.801Z,43.20
2023-02-07T17:06:55.466Z,46.67
2023-02-07T17:10:52.500Z,46.97
2023-02-07T17:14:45.410Z,48.15
2023-02-07T17:18:38.308Z,57.33
2023-02-07T17:22:31.445Z,54.67
2023-02-07T17:26:31.818Z,53.33
2023-02-07T17:30:40.181Z,51.50
2023-02-07T17:34:33.541Z,46.83
2023-02-07T17:38:29.375Z,44.27
2023-02-07T17:42:24.116Z,54.67
2023-02-07T17:46:27.306Z,48.93
2023-02-07T17:50:26.631Z,49.37
2023-02-07T17:54:21.706Z,59.43
2023-02-07T17:58:19.656Z,60.37
2023-02-07T18:02:15.545Z,58.50
2023-02-07T18:06:14.821Z,57.87
2023-02-07T18:10:11.475Z,64.60
2023-02-07T18:14:09.533Z,61.42
2023-02-07T18:18:04.251Z,55.33
2023-02-07T18:21:58.746Z,53.93
2023-02-07T18:25:53.270Z,49.60
2023-02-07T18:29:47.184Z,47.97
2023-02-07T18:33:41.370Z,50.97
2023-02-07T18:37:35.639Z,54.60
2023-02-07T18:41:30.121Z,56.83
2023-02-07T18:45:26.001Z,65.77
2023-02-07T18:49:20.271Z,63.50
2023-02-07T18:53:14.560Z,69.70
2023-02-07T18:57:10.653Z,84.80
2023-02-07T19:01:10.554Z,60.17
2023-02-07T19:05:05.174Z,51.50
2023-02-07T19:08:59.999Z,55.13
2023-02-07T19:12:55.211Z,58.87
2023-02-07T19:16:52.179Z,57.93
2023-02-07T19:20:46.611Z,54.57
2023-02-07T19:24:42.864Z,52.40
2023-02-07T19:28:39.673Z,48.30
2023-02-07T19:32:34.050Z,55.40
2023-02-07T19:36:29.045Z,63.00
2023-02-07T19:40:24.245Z,52.47
2023-02-07T19:44:18.995Z,72.07
2023-02-07T19:48:14.965Z,74.63
2023-02-07T19:52:10.162Z,129.30
2023-02-07T19:56:12.912Z,94.57
2023-02-07T20:00:12.141Z,96.63
2023-02-07T20:04:10.644Z,87.27
2023-02-07T20:08:05.754Z,71.40
2023-02-07T20:12:02.766Z,72.07
2023-02-07T20:15:57.198Z,64.77
2023-02-07T20:19:52.855Z,69.13
2023-02-07T20:23:51.071Z,85.77
2023-02-07T20:27:45.733Z,97.10
2023-02-07T20:31:41.657Z,95.07
2023-02-07T20:35:39.932Z,75.33
2023-02-07T20:39:35.335Z,67.03
2023-02-07T20:43:29.470Z,53.23
2023-02-07T20:47:27.355Z,67.37
2023-02-07T20:51:22.891Z,78.40
2023-02-07T20:55:18.214Z,88.93
2023-02-07T20:59:20.722Z,82.67
2023-02-07T21:03:15.506Z,89.33
2023-02-07T21:07:09.661Z,86.60
2023-02-07T21:11:05.870Z,82.53
2023-02-07T21:14:59.622Z,76.17
2023-02-07T21:18:52.925Z,76.77
2023-02-07T21:22:46.453Z,77.20
2023-02-07T21:26:40.261Z,81.90
2023-02-07T21:30:34.595Z,79.43
2023-02-07T21:34:27.581Z,79.63
2023-02-07T21:38:20.910Z,69.30
2023-02-07T21:42:14.156Z,73.47
2023-02-07T21:46:11.679Z,70.37
2023-02-07T21:50:04.649Z,73.13
2023-02-07T21:53:58.281Z,72.93
2023-02-07T21:57:51.874Z,64.20
2023-02-07T22:01:46.506Z,60.20
2023-02-07T22:05:39.300Z,54.37
2023-02-07T22:09:31.888Z,56.43
2023-02-07T22:17:23.685Z,46.27
2023-02-07T22:21:20.748Z,46.40
2023-02-07T22:25:13.261Z,46.90
2023-02-07T22:29:07.428Z,48.47
2023-02-07T22:33:00.202Z,50.60
2023-02-07T22:36:52.962Z,45.27
2023-02-07T22:40:45.415Z,47.63
2023-02-07T22:44:38.168Z,41.80
2023-02-07T22:48:31.542Z,42.33
2023-02-07T22:52:24.203Z,44.60
2023-02-07T22:56:17.525Z,44.67
2023-02-07T23:00:15.096Z,44.10
2023-02-07T23:04:13.295Z,44.37
2023-02-07T23:08:07.023Z,46.63
2023-02-07T23:12:00.536Z,43.40
2023-02-07T23:15:54.227Z,48.33
2023-02-07T23:19:47.068Z,44.67
2023-02-07T23:23:40.632Z,43.03
2023-02-07T23:27:33.770Z,43.63
2023-02-07T23:31:26.878Z,42.00
2023-02-07T23:35:19.746Z,46.43
2023-02-07T23:39:12.761Z,49.03
2023-02-07T23:43:05.316Z,43.27
2023-02-07T23:46:58.076Z,43.80
2023-02-07T23:50:55.698Z,44.33
2023-02-07T23:54:48.535Z,44.47
2023-02-07T23:58:41.302Z,44.30
